KSNK/SNK METAR and TAF weather

Enter ICAO airport designator
Station Type Date Time Source
KSNK METAR 2019/02/20 07:55 UTC NOAA

KSNK 200755Z AUTO 26004KT 3SM BR CLR M05/M05 A2994 RMK AO2 T10481048


Station Type Date Time Source
KSNK Decoded METAR 2019/02/20 07:55 UTC NOAA

Snyder, Winston Field Airport, TX, United States (KSNK) 32-41-36N 100-57-01W
Feb 20, 2019 - 02:55 AM EST / 2019.02.20 0755 UTC
Wind: from the W (260 degrees) at 5 MPH (4 KT):0
Visibility: 3 mile(s):0
Sky conditions: clear
Weather: mist
Temperature: 23.4 F (-4.8 C)
Windchill: 17 F (-8 C):1
Dew Point: 23.4 F (-4.8 C)
Relative Humidity: 100%
Pressure (altimeter): 29.94 in. Hg (1013 hPa)
ob: KSNK 200755Z AUTO 26004KT 3SM BR CLR M05/M05 A2994 RMK AO2 T10481048
cycle: 8

Station Type Date Time Source
KSNK TAF UTC NOAA

Error!


Example: see airport list